Time;durP1;ratioP1;P1;durP2;ratioP2;P2;SDS_P1;SDS_P2;PMS_P1;PMS_P2;Temp;Humidity;BMP_temperature;BMP_pressure;BME280_temperature;BME280_humidity;BME280_pressure;Samples;Min_cycle;Max_cycle;Signal;HPM_P1;HPM_P2
2022/11/12 00:00:54;;;;;;;;;;;8.40;94.20;;;;;;5073076;28;19995;-86
2022/11/12 00:03:20;;;;;;;;;;;8.40;94.40;;;;;;5071025;28;19942;-86
2022/11/12 00:05:45;;;;;;;;;;;8.50;94.60;;;;;;5072994;28;20396;-86
2022/11/12 00:08:11;;;;;;;;;;;8.60;94.60;;;;;;5072986;28;19934;-87
2022/11/12 00:10:36;;;;;;;;;;;8.60;94.60;;;;;;5072220;28;19949;-86
2022/11/12 00:13:02;;;;;;;;;;;8.70;94.50;;;;;;5072143;28;19965;-87
2022/11/12 00:15:28;;;;;;;;;;;8.80;94.40;;;;;;5071779;28;19958;-87
2022/11/12 00:17:53;;;;;;;;;;;8.80;94.30;;;;;;5072038;28;20023;-86
2022/11/12 00:20:19;;;;;;;;;;;8.70;93.60;;;;;;5072855;28;19939;-86
2022/11/12 00:22:45;;;;;;;;;;;8.80;93.50;;;;;;5072746;28;19976;-86
2022/11/12 00:25:10;;;;;;;;;;;8.80;93.50;;;;;;5055571;28;19954;-86
2022/11/12 00:27:36;;;;;;;;;;;8.80;92.70;;;;;;5057537;28;20340;-87
2022/11/12 00:30:01;;;;;;;;;;;8.80;92.70;;;;;;5072737;28;20480;-87
2022/11/12 00:32:27;;;;;;;;;;;8.80;92.60;;;;;;5072088;28;19964;-87
2022/11/12 00:34:52;;;;;;;;;;;8.70;91.80;;;;;;5072701;28;19983;-87
2022/11/12 00:37:19;;;;;;;;;;;8.70;92.40;;;;;;5071920;28;20020;-86
2022/11/12 00:39:45;;;;;;;;;;;8.70;92.30;;;;;;5072632;28;19936;-86
2022/11/12 00:42:10;;;;;;;;;;;8.70;92.20;;;;;;5071965;28;19952;-86
2022/11/12 00:44:36;;;;;;;;;;;8.70;92.40;;;;;;5072666;28;19945;-87
2022/11/12 00:47:01;;;;;;;;;;;8.70;92.40;;;;;;5071976;28;19945;-86
2022/11/12 00:49:27;;;;;;;;;;;8.80;92.50;;;;;;5072448;28;19940;-86
2022/11/12 00:51:52;;;;;;;;;;;8.80;92.40;;;;;;5072188;28;20002;-86
2022/11/12 00:54:18;;;;;;;;;;;8.80;92.50;;;;;;5072522;28;19982;-86
2022/11/12 00:56:45;;;;;;;;;;;8.80;92.50;;;;;;5071265;28;19968;-86
2022/11/12 00:59:10;;;;;;;;;;;8.80;92.50;;;;;;5071814;28;19950;-87
2022/11/12 01:01:36;;;;;;;;;;;8.80;92.20;;;;;;5072486;28;19944;-87
2022/11/12 01:04:02;;;;;;;;;;;8.80;92.10;;;;;;5071128;28;19991;-86
2022/11/12 01:06:27;;;;;;;;;;;8.70;91.90;;;;;;5072442;28;19938;-86
2022/11/12 01:08:54;;;;;;;;;;;8.60;91.80;;;;;;5070967;28;20302;-86
2022/11/12 01:11:21;;;;;;;;;;;8.40;90.90;;;;;;5072318;28;20311;-86
2022/11/12 01:13:51;;;;;;;;;;;8.30;91.00;;;;;;5072372;28;19981;-87
2022/11/12 01:16:18;;;;;;;;;;;8.10;91.40;;;;;;5074709;28;19962;-86
2022/11/12 01:18:46;;;;;;;;;;;8.10;91.70;;;;;;5075031;28;19946;-86
2022/11/12 01:21:12;;;;;;;;;;;8.10;91.70;;;;;;5075815;28;20382;-86
2022/11/12 01:23:38;;;;;;;;;;;8.00;92.10;;;;;;5075804;28;19986;-86
2022/11/12 01:26:08;;;;;;;;;;;8.10;92.30;;;;;;5075708;28;19939;-86
2022/11/12 01:28:34;;;;;;;;;;;8.00;92.60;;;;;;5074856;28;20470;-86
2022/11/12 01:31:13;;;;;;;;;;;8.20;92.90;;;;;;5075638;28;20035;-87
2022/11/12 01:33:39;;;;;;;;;;;8.20;92.70;;;;;;5075087;28;19955;-86
2022/11/12 01:36:05;;;;;;;;;;;8.20;92.70;;;;;;5074751;28;20373;-86
2022/11/12 01:38:34;;;;;;;;;;;8.20;92.70;;;;;;5075541;28;19949;-87
2022/11/12 01:40:59;;;;;;;;;;;8.10;92.70;;;;;;5075506;28;20379;-86
2022/11/12 01:43:25;;;;;;;;;;;8.20;92.60;;;;;;5075449;28;19981;-87
2022/11/12 01:45:51;;;;;;;;;;;8.20;92.60;;;;;;5067612;28;20463;-86
2022/11/12 01:48:33;;;;;;;;;;;8.20;92.50;;;;;;5060926;28;19954;-86
2022/11/12 01:51:02;;;;;;;;;;;8.20;92.50;;;;;;5074816;28;20483;-86
2022/11/12 01:53:29;;;;;;;;;;;8.10;92.30;;;;;;5073702;28;20302;-86
2022/11/12 01:55:55;;;;;;;;;;;8.10;92.30;;;;;;5067103;28;19987;-86
2022/11/12 01:58:22;;;;;;;;;;;8.10;92.50;;;;;;5055171;28;20382;-87
2022/11/12 02:00:48;;;;;;;;;;;8.00;92.70;;;;;;5055142;28;19942;-86
2022/11/12 02:03:21;;;;;;;;;;;8.00;92.80;;;;;;5089952;28;19945;-86
2022/11/12 02:05:48;;;;;;;;;;;7.90;92.90;;;;;;5074983;28;19943;-86
2022/11/12 02:08:14;;;;;;;;;;;7.90;93.10;;;;;;5074125;28;20388;-86
2022/11/12 02:10:39;;;;;;;;;;;7.80;93.20;;;;;;5074809;28;19952;-86
2022/11/12 02:15:49;;;;;;;;;;;7.80;93.10;;;;;;5074843;28;19950;-86
2022/11/12 02:18:15;;;;;;;;;;;7.70;92.90;;;;;;5074000;28;20035;-86
2022/11/12 02:20:40;;;;;;;;;;;7.70;92.80;;;;;;5074702;28;20347;-86
2022/11/12 02:23:07;;;;;;;;;;;7.50;93.10;;;;;;5072069;28;19942;-86
2022/11/12 02:25:33;;;;;;;;;;;7.40;93.00;;;;;;5054706;28;20371;-86
2022/11/12 02:27:59;;;;;;;;;;;7.40;93.00;;;;;;5054300;28;20424;-86
2022/11/12 02:30:40;;;;;;;;;;;7.50;93.20;;;;;;5054518;28;19982;-86
2022/11/12 02:33:05;;;;;;;;;;;7.60;93.80;;;;;;5054625;28;20372;-86
2022/11/12 02:35:31;;;;;;;;;;;7.60;93.70;;;;;;5074401;28;19944;-86
2022/11/12 02:37:57;;;;;;;;;;;7.60;93.80;;;;;;5074366;28;20438;-86
2022/11/12 02:40:23;;;;;;;;;;;7.50;93.80;;;;;;5074330;28;19939;-86
2022/11/12 02:42:48;;;;;;;;;;;7.50;93.90;;;;;;5074225;28;19945;-86
2022/11/12 02:45:14;;;;;;;;;;;7.60;94.00;;;;;;5073749;28;20001;-86
2022/11/12 02:47:39;;;;;;;;;;;7.60;94.30;;;;;;5072888;28;19992;-86
2022/11/12 02:50:05;;;;;;;;;;;7.70;94.40;;;;;;5073112;28;20038;-86
2022/11/12 02:52:31;;;;;;;;;;;7.70;94.40;;;;;;5072893;28;19961;-86
2022/11/12 02:54:57;;;;;;;;;;;7.60;94.30;;;;;;5074078;28;19947;-86
2022/11/12 02:57:22;;;;;;;;;;;7.60;94.40;;;;;;5074047;28;19961;-86
2022/11/12 02:59:48;;;;;;;;;;;7.60;94.40;;;;;;5073896;28;20027;-86
2022/11/12 03:02:13;;;;;;;;;;;7.60;94.50;;;;;;5073090;28;20383;-86
2022/11/12 03:04:39;;;;;;;;;;;7.60;94.50;;;;;;5072182;28;20396;-86
2022/11/12 03:07:05;;;;;;;;;;;7.70;94.50;;;;;;5073832;28;19993;-86
2022/11/12 03:09:30;;;;;;;;;;;7.60;94.60;;;;;;5073041;28;19986;-86
2022/11/12 03:11:56;;;;;;;;;;;7.60;94.60;;;;;;5073609;28;19959;-86
2022/11/12 03:14:21;;;;;;;;;;;7.70;94.60;;;;;;5072156;28;19973;-86
2022/11/12 03:16:47;;;;;;;;;;;7.70;94.60;;;;;;5073670;28;19946;-86
2022/11/12 03:19:12;;;;;;;;;;;7.70;94.60;;;;;;5072742;28;20303;-86
2022/11/12 03:21:38;;;;;;;;;;;7.80;94.40;;;;;;5072747;28;19945;-86
2022/11/12 03:24:03;;;;;;;;;;;7.80;94.30;;;;;;5073497;28;19941;-87
2022/11/12 03:26:29;;;;;;;;;;;7.80;94.10;;;;;;5073520;28;19941;-86
2022/11/12 03:28:54;;;;;;;;;;;7.80;94.00;;;;;;5073423;28;19940;-86
2022/11/12 03:31:20;;;;;;;;;;;7.80;93.90;;;;;;5072810;28;19994;-86
2022/11/12 03:33:45;;;;;;;;;;;7.80;93.70;;;;;;5072493;28;19946;-86
2022/11/12 03:36:11;;;;;;;;;;;7.80;93.30;;;;;;5073278;28;19937;-86
2022/11/12 03:38:37;;;;;;;;;;;7.70;92.80;;;;;;5073012;28;19944;-86
2022/11/12 03:41:02;;;;;;;;;;;7.70;92.80;;;;;;5072505;28;20041;-86
2022/11/12 03:43:28;;;;;;;;;;;7.70;92.90;;;;;;5073194;28;19943;-86
2022/11/12 03:45:53;;;;;;;;;;;7.70;92.80;;;;;;5073189;28;19994;-86
2022/11/12 03:48:19;;;;;;;;;;;7.70;92.90;;;;;;5072448;28;19945;-86
2022/11/12 03:50:44;;;;;;;;;;;7.80;93.00;;;;;;5073261;28;20030;-87
2022/11/12 03:53:10;;;;;;;;;;;7.80;93.10;;;;;;5072976;28;19960;-86
2022/11/12 03:55:35;;;;;;;;;;;7.80;93.00;;;;;;5073058;28;20005;-86
2022/11/12 03:58:01;;;;;;;;;;;7.80;91.90;;;;;;5070969;28;20028;-86
2022/11/12 04:00:27;;;;;;;;;;;7.90;91.60;;;;;;5073060;28;20305;-87
2022/11/12 04:02:53;;;;;;;;;;;7.90;91.40;;;;;;5073009;28;19991;-87
2022/11/12 04:10:49;;;;;;;;;;;7.60;91.50;;;;;;5073285;28;20405;-86
2022/11/12 04:13:26;;;;;;;;;;;7.50;91.80;;;;;;5072867;28;20047;-86
2022/11/12 04:21:50;;;;;;;;;;;7.60;92.90;;;;;;5073168;28;20043;-86
2022/11/12 04:27:00;;;;;;;;;;;7.90;93.80;;;;;;5072802;28;20294;-86
2022/11/12 04:32:09;;;;;;;;;;;7.80;93.60;;;;;;5072721;28;19997;-86
2022/11/12 04:34:35;;;;;;;;;;;7.70;93.10;;;;;;5071963;28;19949;-86
2022/11/12 04:37:01;;;;;;;;;;;7.80;93.20;;;;;;5072755;28;19941;-86
2022/11/12 04:39:27;;;;;;;;;;;7.80;93.10;;;;;;5072158;28;19981;-86
2022/11/12 04:47:42;;;;;;;;;;;7.80;92.20;;;;;;5030350;28;19945;-86
2022/11/12 04:50:15;;;;;;;;;;;7.80;92.20;;;;;;5030033;28;20034;-86
2022/11/12 04:52:41;;;;;;;;;;;7.80;92.20;;;;;;5045363;28;19987;-86
2022/11/12 04:55:07;;;;;;;;;;;7.80;92.30;;;;;;5056252;28;19946;-86
2022/11/12 04:57:32;;;;;;;;;;;7.80;92.50;;;;;;5056301;28;20038;-87
2022/11/12 04:59:58;;;;;;;;;;;7.70;92.60;;;;;;5072571;28;20438;-87
2022/11/12 05:02:23;;;;;;;;;;;7.70;92.80;;;;;;5076173;28;20484;-86
2022/11/12 05:04:49;;;;;;;;;;;7.70;92.90;;;;;;5075271;28;20394;-86
2022/11/12 05:07:15;;;;;;;;;;;7.80;93.00;;;;;;5076129;28;20406;-87
2022/11/12 05:09:41;;;;;;;;;;;7.70;93.20;;;;;;5075282;28;20427;-86
2022/11/12 05:12:06;;;;;;;;;;;7.70;93.30;;;;;;5075962;28;19971;-86
2022/11/12 05:14:32;;;;;;;;;;;7.70;93.30;;;;;;5076002;28;20426;-86
2022/11/12 05:16:58;;;;;;;;;;;7.70;93.60;;;;;;5076232;28;19942;-86
2022/11/12 05:19:23;;;;;;;;;;;7.70;93.60;;;;;;5075071;28;19952;-86
2022/11/12 05:22:04;;;;;;;;;;;7.70;93.70;;;;;;5075785;28;20040;-86
2022/11/12 05:24:37;;;;;;;;;;;7.70;93.70;;;;;;5075859;28;20392;-87
2022/11/12 05:27:03;;;;;;;;;;;7.70;93.80;;;;;;5076005;28;19966;-86
2022/11/12 05:29:29;;;;;;;;;;;7.70;93.90;;;;;;5075203;28;19995;-86
2022/11/12 05:31:55;;;;;;;;;;;7.70;94.00;;;;;;5075877;28;19968;-86
2022/11/12 05:34:20;;;;;;;;;;;7.60;94.00;;;;;;5074844;28;20406;-86
2022/11/12 05:36:46;;;;;;;;;;;7.60;94.00;;;;;;5075628;28;19958;-86
2022/11/12 05:39:11;;;;;;;;;;;7.60;94.00;;;;;;5075328;28;19995;-86
2022/11/12 05:41:37;;;;;;;;;;;7.60;94.10;;;;;;5075532;28;20033;-86
2022/11/12 05:44:02;;;;;;;;;;;7.60;94.10;;;;;;5075452;28;20043;-86
2022/11/12 05:46:28;;;;;;;;;;;7.60;94.10;;;;;;5075450;28;20009;-86
2022/11/12 05:48:53;;;;;;;;;;;7.60;94.20;;;;;;5072214;28;19942;-86
2022/11/12 05:51:19;;;;;;;;;;;7.60;94.20;;;;;;5054876;28;19996;-86
2022/11/12 05:53:44;;;;;;;;;;;7.50;94.20;;;;;;5055162;28;19970;-86
2022/11/12 05:56:11;;;;;;;;;;;7.60;94.20;;;;;;5062493;28;19992;-86
2022/11/12 05:58:36;;;;;;;;;;;7.50;94.30;;;;;;5070353;28;19990;-86
2022/11/12 06:01:02;;;;;;;;;;;7.60;94.40;;;;;;5066052;28;19982;-86
2022/11/12 06:03:28;;;;;;;;;;;7.50;94.30;;;;;;5070492;28;19949;-86
2022/11/12 06:05:54;;;;;;;;;;;7.50;94.40;;;;;;5072592;28;19942;-86
2022/11/12 06:08:19;;;;;;;;;;;7.50;94.40;;;;;;5064278;28;19986;-86
2022/11/12 06:10:49;;;;;;;;;;;7.50;94.40;;;;;;5064807;28;19943;-86
2022/11/12 06:13:14;;;;;;;;;;;7.50;94.50;;;;;;5058615;28;20361;-86
2022/11/12 06:15:40;;;;;;;;;;;7.50;94.40;;;;;;5073253;28;19947;-86
2022/11/12 06:18:06;;;;;;;;;;;7.50;94.40;;;;;;5074763;28;19989;-86
2022/11/12 06:20:31;;;;;;;;;;;7.40;94.50;;;;;;5071961;28;19948;-86
2022/11/12 06:22:57;;;;;;;;;;;7.50;94.60;;;;;;5069935;28;20004;-86
2022/11/12 06:25:22;;;;;;;;;;;7.70;94.70;;;;;;5071065;28;19946;-86
2022/11/12 06:27:48;;;;;;;;;;;7.70;94.50;;;;;;5072708;28;20021;-86
2022/11/12 06:30:13;;;;;;;;;;;7.70;94.30;;;;;;5055951;28;20005;-86
2022/11/12 06:32:39;;;;;;;;;;;7.60;94.00;;;;;;5056171;28;20056;-86
2022/11/12 06:35:05;;;;;;;;;;;7.50;94.20;;;;;;5069888;28;19960;-86
2022/11/12 06:37:30;;;;;;;;;;;7.50;94.80;;;;;;5073570;28;20302;-86
2022/11/12 06:39:56;;;;;;;;;;;7.60;95.00;;;;;;5074662;28;19937;-86
2022/11/12 06:42:21;;;;;;;;;;;7.70;95.10;;;;;;5074273;28;19937;-86
2022/11/12 06:44:47;;;;;;;;;;;7.80;94.80;;;;;;5073958;28;19966;-86
2022/11/12 06:47:12;;;;;;;;;;;7.90;94.70;;;;;;5070430;28;19947;-86
2022/11/12 06:49:38;;;;;;;;;;;7.90;94.60;;;;;;5073514;28;19943;-87
2022/11/12 06:52:04;;;;;;;;;;;7.90;94.40;;;;;;5073579;28;19972;-86
2022/11/12 06:54:29;;;;;;;;;;;8.00;94.30;;;;;;5073969;28;19942;-86
2022/11/12 06:56:55;;;;;;;;;;;8.00;94.30;;;;;;5073111;28;20047;-86
2022/11/12 06:59:20;;;;;;;;;;;8.10;94.10;;;;;;5072629;28;19947;-86
2022/11/12 07:01:46;;;;;;;;;;;8.10;94.20;;;;;;5073776;28;19947;-86
2022/11/12 07:04:11;;;;;;;;;;;8.10;94.00;;;;;;5073803;28;19953;-86
2022/11/12 07:06:37;;;;;;;;;;;8.10;93.50;;;;;;5072414;28;20012;-86
2022/11/12 07:09:03;;;;;;;;;;;8.00;93.40;;;;;;5068041;28;19953;-86
2022/11/12 07:11:29;;;;;;;;;;;8.00;93.50;;;;;;5077630;28;19951;-86
2022/11/12 07:13:54;;;;;;;;;;;8.10;93.80;;;;;;5092730;28;20378;-86
2022/11/12 07:16:21;;;;;;;;;;;8.10;93.90;;;;;;5076095;28;20405;-86
2022/11/12 07:18:47;;;;;;;;;;;8.20;94.20;;;;;;5062780;28;19989;-87
2022/11/12 07:21:14;;;;;;;;;;;8.30;94.20;;;;;;5064534;28;19946;-86
2022/11/12 07:23:40;;;;;;;;;;;8.30;94.10;;;;;;5063440;28;19944;-86
2022/11/12 07:26:06;;;;;;;;;;;8.40;94.30;;;;;;5057091;28;19946;-86
2022/11/12 07:28:32;;;;;;;;;;;8.40;94.10;;;;;;5056586;28;19950;-86
2022/11/12 07:31:02;;;;;;;;;;;8.50;94.00;;;;;;5063897;28;19944;-86
2022/11/12 07:33:29;;;;;;;;;;;8.50;93.90;;;;;;5059553;28;19997;-87
2022/11/12 07:35:57;;;;;;;;;;;8.60;93.80;;;;;;5063317;28;20455;-86
2022/11/12 07:38:23;;;;;;;;;;;8.60;93.80;;;;;;5055856;28;19948;-87
2022/11/12 07:40:49;;;;;;;;;;;8.70;93.60;;;;;;5060404;28;19947;-87
2022/11/12 07:43:14;;;;;;;;;;;8.80;93.60;;;;;;5071058;28;19968;-86
2022/11/12 07:45:40;;;;;;;;;;;8.90;93.60;;;;;;5072237;28;19950;-87
2022/11/12 07:48:05;;;;;;;;;;;8.90;93.50;;;;;;5073050;28;19938;-87
2022/11/12 07:50:31;;;;;;;;;;;9.10;93.40;;;;;;5070000;22;19977;-87
2022/11/12 07:52:59;;;;;;;;;;;9.30;93.40;;;;;;5031545;28;19960;-87
2022/11/12 07:55:25;;;;;;;;;;;9.30;93.00;;;;;;5028680;28;19951;-87
2022/11/12 07:57:52;;;;;;;;;;;9.40;92.60;;;;;;5031376;28;19942;-87
2022/11/12 08:00:18;;;;;;;;;;;9.40;91.80;;;;;;5032445;28;19950;-87
2022/11/12 08:02:43;;;;;;;;;;;9.40;91.90;;;;;;5032807;28;20011;-87
2022/11/12 08:05:09;;;;;;;;;;;9.10;92.20;;;;;;5031945;28;20000;-86
2022/11/12 08:07:35;;;;;;;;;;;9.00;92.70;;;;;;5032829;28;19945;-86
2022/11/12 08:10:00;;;;;;;;;;;9.00;93.00;;;;;;5031952;28;20484;-86
2022/11/12 08:12:27;;;;;;;;;;;9.00;93.30;;;;;;5032856;28;19960;-86
2022/11/12 08:14:53;;;;;;;;;;;9.00;93.60;;;;;;5032084;28;19995;-86
2022/11/12 08:17:18;;;;;;;;;;;9.10;93.60;;;;;;5032213;28;20049;-86
2022/11/12 08:19:44;;;;;;;;;;;9.10;93.80;;;;;;5031165;28;19941;-86
2022/11/12 08:22:10;;;;;;;;;;;9.30;93.70;;;;;;5032840;28;20352;-86
2022/11/12 08:24:35;;;;;;;;;;;9.40;93.70;;;;;;5033314;28;20543;-86
2022/11/12 08:27:01;;;;;;;;;;;9.50;93.70;;;;;;5035723;28;19946;-86
2022/11/12 08:29:26;;;;;;;;;;;9.60;93.60;;;;;;5036798;28;20478;-86
2022/11/12 08:31:52;;;;;;;;;;;9.70;93.50;;;;;;5035915;28;20410;-86
2022/11/12 08:34:17;;;;;;;;;;;9.80;93.50;;;;;;5029448;28;20043;-87
2022/11/12 08:36:43;;;;;;;;;;;9.80;93.30;;;;;;5035694;28;19949;-87
2022/11/12 08:39:08;;;;;;;;;;;9.90;93.60;;;;;;5036202;28;20019;-87
2022/11/12 08:41:34;;;;;;;;;;;9.90;93.70;;;;;;5035168;28;20397;-86
2022/11/12 08:44:00;;;;;;;;;;;10.00;93.60;;;;;;5036424;28;19944;-86
2022/11/12 08:46:25;;;;;;;;;;;10.00;93.50;;;;;;5035150;28;20407;-86
2022/11/12 08:48:51;;;;;;;;;;;10.00;93.40;;;;;;5035194;28;19945;-86
2022/11/12 08:51:16;;;;;;;;;;;10.10;93.40;;;;;;5034597;28;19982;-86
2022/11/12 08:53:42;;;;;;;;;;;10.20;93.50;;;;;;5035556;28;20015;-86
2022/11/12 08:56:07;;;;;;;;;;;10.30;93.50;;;;;;5036459;28;19992;-86
2022/11/12 08:58:33;;;;;;;;;;;10.40;93.50;;;;;;5035448;28;20453;-86
2022/11/12 09:01:02;;;;;;;;;;;10.50;93.20;;;;;;5035202;28;20249;-86
2022/11/12 09:03:28;;;;;;;;;;;10.60;93.00;;;;;;5036010;28;19956;-86
2022/11/12 09:05:53;;;;;;;;;;;10.70;92.40;;;;;;5033352;28;19944;-86
2022/11/12 09:08:20;;;;;;;;;;;10.80;92.20;;;;;;5036358;28;19949;-86
2022/11/12 09:10:46;;;;;;;;;;;10.90;91.40;;;;;;5035227;28;19947;-86
2022/11/12 09:13:13;;;;;;;;;;;10.90;91.30;;;;;;5035198;28;19968;-86
2022/11/12 09:15:38;;;;;;;;;;;11.10;91.50;;;;;;5035937;28;19941;-87
2022/11/12 09:18:05;;;;;;;;;;;11.30;91.60;;;;;;5035574;28;19944;-87
2022/11/12 09:20:31;;;;;;;;;;;11.40;91.50;;;;;;5034064;28;20442;-86
2022/11/12 09:22:58;;;;;;;;;;;11.50;90.90;;;;;;5035541;28;19940;-86
2022/11/12 09:25:24;;;;;;;;;;;11.60;90.50;;;;;;5035709;28;19940;-86
2022/11/12 09:27:49;;;;;;;;;;;11.70;90.30;;;;;;5017156;28;20477;-86
2022/11/12 09:30:15;;;;;;;;;;;11.80;89.70;;;;;;5035010;28;19992;-86
2022/11/12 09:32:41;;;;;;;;;;;11.90;90.20;;;;;;5035464;28;19961;-86
2022/11/12 09:35:06;;;;;;;;;;;12.10;90.20;;;;;;5034454;28;20034;-87
2022/11/12 09:37:32;;;;;;;;;;;12.40;88.70;;;;;;5034665;28;19997;-86
2022/11/12 09:39:57;;;;;;;;;;;12.40;87.80;;;;;;5034080;28;20510;-86
2022/11/12 09:42:23;;;;;;;;;;;12.60;87.00;;;;;;5035478;28;19946;-86
2022/11/12 09:44:56;;;;;;;;;;;12.60;86.40;;;;;;5029398;28;19965;-86
2022/11/12 09:47:27;;;;;;;;;;;12.60;86.00;;;;;;5035576;28;19952;-86
2022/11/12 09:49:53;;;;;;;;;;;12.70;86.00;;;;;;5034226;28;19945;-86
2022/11/12 09:52:22;;;;;;;;;;;12.80;85.90;;;;;;5033783;28;20325;-86
2022/11/12 09:54:56;;;;;;;;;;;12.90;85.50;;;;;;5035135;28;20470;-87
2022/11/12 09:57:22;;;;;;;;;;;13.00;85.30;;;;;;5035179;28;20430;-86
2022/11/12 09:59:47;;;;;;;;;;;13.10;84.80;;;;;;5034128;28;19956;-86
2022/11/12 10:02:22;;;;;;;;;;;13.10;85.00;;;;;;5034078;28;20035;-86
2022/11/12 10:04:47;;;;;;;;;;;13.10;84.60;;;;;;5016580;28;20369;-86
2022/11/12 10:07:23;;;;;;;;;;;13.00;83.70;;;;;;5034535;28;19937;-86
2022/11/12 10:09:58;;;;;;;;;;;13.10;84.30;;;;;;5033343;28;19940;-87
2022/11/12 10:12:42;;;;;;;;;;;13.30;84.30;;;;;;5034077;28;19965;-86
2022/11/12 10:18:12;;;;;;;;;;;13.30;84.00;;;;;;5033841;28;20074;-87
2022/11/12 10:20:56;;;;;;;;;;;13.30;84.80;;;;;;5034768;28;19942;-86
2022/11/12 10:23:25;;;;;;;;;;;13.30;85.00;;;;;;5034454;28;20018;-86
2022/11/12 10:25:52;;;;;;;;;;;13.40;85.40;;;;;;5034415;28;19937;-86
2022/11/12 10:28:37;;;;;;;;;;;13.30;84.60;;;;;;5032384;28;19948;-86
2022/11/12 10:31:20;;;;;;;;;;;13.30;84.80;;;;;;5033828;28;19994;-86
2022/11/12 10:33:46;;;;;;;;;;;13.40;85.30;;;;;;5033461;28;20011;-86
2022/11/12 10:36:22;;;;;;;;;;;13.50;84.90;;;;;;5033335;28;19948;-87
2022/11/12 10:38:51;;;;;;;;;;;13.60;85.20;;;;;;5034366;28;20320;-86
2022/11/12 10:41:18;;;;;;;;;;;13.60;85.00;;;;;;5031729;28;20310;-86
2022/11/12 10:43:52;;;;;;;;;;;13.60;85.00;;;;;;5028027;28;20076;-86
2022/11/12 10:46:18;;;;;;;;;;;13.80;85.30;;;;;;5034209;28;19949;-86
2022/11/12 10:48:52;;;;;;;;;;;13.90;84.30;;;;;;5033260;28;19952;-86
2022/11/12 10:51:22;;;;;;;;;;;13.90;83.70;;;;;;5033855;28;20091;-86
2022/11/12 10:53:47;;;;;;;;;;;14.00;83.90;;;;;;5032935;28;19952;-86
2022/11/12 10:56:22;;;;;;;;;;;14.10;83.60;;;;;;5033902;28;19948;-87
2022/11/12 10:59:06;;;;;;;;;;;14.10;83.50;;;;;;5033628;28;20148;-86
2022/11/12 11:01:32;;;;;;;;;;;14.20;82.90;;;;;;5033056;28;20388;-86
2022/11/12 11:03:58;;;;;;;;;;;14.40;82.90;;;;;;5031779;28;20584;-86
2022/11/12 11:06:25;;;;;;;;;;;14.40;82.70;;;;;;5031236;28;19952;-86
2022/11/12 11:08:51;;;;;;;;;;;14.40;82.80;;;;;;5032733;28;19946;-87
2022/11/12 11:11:17;;;;;;;;;;;14.40;83.10;;;;;;5033764;28;19943;-86
2022/11/12 11:13:43;;;;;;;;;;;14.50;83.10;;;;;;5032637;28;20045;-87
2022/11/12 11:16:18;;;;;;;;;;;14.50;83.70;;;;;;5032399;28;19946;-87
2022/11/12 11:18:49;;;;;;;;;;;14.50;83.80;;;;;;5032609;28;19981;-86
2022/11/12 11:21:21;;;;;;;;;;;14.40;83.70;;;;;;5015961;28;20451;-86
2022/11/12 11:23:49;;;;;;;;;;;14.40;83.90;;;;;;5033499;28;20275;-86
2022/11/12 11:26:35;;;;;;;;;;;14.30;84.40;;;;;;5033518;28;19937;-86
2022/11/12 11:29:19;;;;;;;;;;;14.30;84.60;;;;;;5033015;28;19946;-86
2022/11/12 11:31:47;;;;;;;;;;;14.20;84.50;;;;;;5033317;28;20033;-86
2022/11/12 11:34:13;;;;;;;;;;;14.10;84.40;;;;;;5033570;28;19986;-86
2022/11/12 11:36:46;;;;;;;;;;;14.10;84.80;;;;;;5033355;28;19943;-86
2022/11/12 11:39:19;;;;;;;;;;;14.10;84.50;;;;;;5033307;28;19946;-86
2022/11/12 11:42:05;;;;;;;;;;;14.10;84.90;;;;;;5033289;28;20006;-86
2022/11/12 11:44:37;;;;;;;;;;;14.20;84.50;;;;;;5033273;28;19942;-86
2022/11/12 11:47:35;;;;;;;;;;;14.30;84.10;;;;;;5033236;28;19973;-86
2022/11/12 11:50:07;;;;;;;;;;;14.40;84.20;;;;;;5010331;28;19950;-86
2022/11/12 11:52:45;;;;;;;;;;;14.40;84.30;;;;;;5032919;28;20029;-86
2022/11/12 11:55:10;;;;;;;;;;;14.60;84.00;;;;;;5033179;28;19959;-86
2022/11/12 11:57:59;;;;;;;;;;;14.70;83.40;;;;;;5033191;28;20040;-86
2022/11/12 12:00:29;;;;;;;;;;;14.80;83.40;;;;;;5032686;28;19967;-86
2022/11/12 12:03:13;;;;;;;;;;;14.90;82.70;;;;;;5033083;28;19962;-86
2022/11/12 12:05:57;;;;;;;;;;;15.00;82.80;;;;;;5033024;28;19943;-86
2022/11/12 12:08:29;;;;;;;;;;;15.10;82.10;;;;;;5015476;28;20282;-86
2022/11/12 12:11:12;;;;;;;;;;;15.20;80.20;;;;;;5033007;28;20041;-86
2022/11/12 12:13:38;;;;;;;;;;;15.20;79.70;;;;;;5032948;28;19969;-86
2022/11/12 12:16:27;;;;;;;;;;;15.30;80.00;;;;;;5032993;28;19978;-86
2022/11/12 12:19:05;;;;;;;;;;;15.30;80.20;;;;;;5032920;28;20318;-85
2022/11/12 12:21:33;;;;;;;;;;;15.30;80.30;;;;;;5032910;28;19936;-86
2022/11/12 12:24:04;;;;;;;;;;;15.40;79.30;;;;;;5032940;28;19942;-86
2022/11/12 12:26:34;;;;;;;;;;;15.60;78.90;;;;;;5032917;28;19939;-86
2022/11/12 12:29:23;;;;;;;;;;;15.90;78.40;;;;;;5032863;28;19953;-86
2022/11/12 12:31:54;;;;;;;;;;;16.10;77.70;;;;;;5032811;28;19948;-86
2022/11/12 12:34:23;;;;;;;;;;;16.10;78.60;;;;;;5032828;28;20409;-86
2022/11/12 12:36:50;;;;;;;;;;;16.10;78.70;;;;;;5032846;28;20002;-86
2022/11/12 12:39:17;;;;;;;;;;;16.10;79.00;;;;;;5032779;28;19947;-86
2022/11/12 12:42:00;;;;;;;;;;;16.10;79.00;;;;;;5032780;28;19944;-86
2022/11/12 12:44:58;;;;;;;;;;;15.90;78.60;;;;;;5032776;28;20018;-86
2022/11/12 12:47:14;;;;;;;;;;;15.70;78.40;;;;;;5032552;28;19945;-86
2022/11/12 12:49:40;;;;;;;;;;;15.50;79.50;;;;;;5032685;28;20426;-86
2022/11/12 12:52:06;;;;;;;;;;;15.40;80.70;;;;;;5032252;28;19987;-85
2022/11/12 12:54:34;;;;;;;;;;;15.30;80.80;;;;;;5032618;28;20350;-86
2022/11/12 12:57:01;;;;;;;;;;;15.30;81.50;;;;;;5032568;28;20337;-86
2022/11/12 12:59:27;;;;;;;;;;;15.30;81.60;;;;;;5032829;28;19952;-86
2022/11/12 13:01:57;;;;;;;;;;;15.40;81.70;;;;;;5032595;28;20303;-86
2022/11/12 13:04:43;;;;;;;;;;;15.50;81.30;;;;;;5032809;28;19942;-86
2022/11/12 13:07:08;;;;;;;;;;;15.60;80.90;;;;;;5031882;28;19943;-86
2022/11/12 13:09:34;;;;;;;;;;;15.70;80.10;;;;;;5032513;28;20287;-86
2022/11/12 13:14:31;;;;;;;;;;;15.80;79.10;;;;;;5036359;28;19947;-86
2022/11/12 13:17:00;;;;;;;;;;;15.90;79.10;;;;;;5036059;28;19939;-86
2022/11/12 13:19:27;;;;;;;;;;;15.90;79.30;;;;;;5036220;28;19947;-86
2022/11/12 13:22:11;;;;;;;;;;;16.00;79.30;;;;;;5035953;28;20020;-86
2022/11/12 13:24:55;;;;;;;;;;;16.10;79.60;;;;;;5035875;28;19939;-86
2022/11/12 13:27:39;;;;;;;;;;;16.00;79.80;;;;;;5035818;28;20541;-86
2022/11/12 13:30:24;;;;;;;;;;;16.20;78.90;;;;;;5018050;28;19944;-86
2022/11/12 13:32:50;;;;;;;;;;;16.40;78.80;;;;;;5014663;28;19970;-86
2022/11/12 13:35:15;;;;;;;;;;;17.00;76.60;;;;;;5035730;28;19940;-86
2022/11/12 13:37:46;;;;;;;;;;;17.30;75.40;;;;;;5035667;28;19940;-86
2022/11/12 13:40:29;;;;;;;;;;;17.60;74.10;;;;;;5035605;28;19962;-86
2022/11/12 13:42:57;;;;;;;;;;;17.80;73.30;;;;;;5035597;28;19939;-86
2022/11/12 13:45:23;;;;;;;;;;;17.80;73.20;;;;;;5035471;28;19941;-86
2022/11/12 13:47:50;;;;;;;;;;;17.80;72.60;;;;;;5035494;28;19940;-86
2022/11/12 13:50:17;;;;;;;;;;;17.90;73.00;;;;;;5035320;28;20008;-86
2022/11/12 13:52:44;;;;;;;;;;;18.10;72.50;;;;;;5035395;28;20060;-86
2022/11/12 13:55:14;;;;;;;;;;;18.00;72.50;;;;;;5035327;28;19947;-86
2022/11/12 13:57:39;;;;;;;;;;;17.90;72.80;;;;;;5017555;28;19994;-86
2022/11/12 14:00:08;;;;;;;;;;;17.80;73.40;;;;;;5035262;28;19984;-86
2022/11/12 14:02:35;;;;;;;;;;;17.80;73.30;;;;;;5035252;28;20065;-86
2022/11/12 14:05:01;;;;;;;;;;;17.30;73.70;;;;;;5035125;28;20444;-86
2022/11/12 14:07:35;;;;;;;;;;;17.00;75.00;;;;;;5035159;28;19936;-86
2022/11/12 14:10:01;;;;;;;;;;;16.90;75.60;;;;;;5035069;28;19940;-87
2022/11/12 14:12:32;;;;;;;;;;;16.90;76.10;;;;;;5034992;28;19981;-86
2022/11/12 14:15:33;;;;;;;;;;;16.80;76.70;;;;;;5034957;28;19967;-86
2022/11/12 14:18:10;;;;;;;;;;;16.90;76.50;;;;;;4993325;28;19995;-86
2022/11/12 14:20:39;;;;;;;;;;;16.90;77.00;;;;;;5029717;28;19950;-86
2022/11/12 14:23:15;;;;;;;;;;;16.80;76.90;;;;;;5034545;28;20233;-86
2022/11/12 14:25:51;;;;;;;;;;;16.80;77.40;;;;;;5017048;28;20296;-86
2022/11/12 14:28:30;;;;;;;;;;;16.40;78.00;;;;;;5034787;28;19939;-86
2022/11/12 14:30:57;;;;;;;;;;;16.30;78.80;;;;;;5016883;28;19974;-86
2022/11/12 14:33:25;;;;;;;;;;;16.20;78.60;;;;;;5034523;28;20050;-86
2022/11/12 14:35:58;;;;;;;;;;;16.10;79.20;;;;;;5034549;28;20333;-87
2022/11/12 14:38:29;;;;;;;;;;;15.90;79.80;;;;;;5034841;28;20019;-87
2022/11/12 14:41:07;;;;;;;;;;;15.90;80.00;;;;;;5034514;28;19940;-86
2022/11/12 14:43:33;;;;;;;;;;;15.80;80.10;;;;;;5034423;28;19936;-86
2022/11/12 14:45:59;;;;;;;;;;;15.80;80.30;;;;;;5034414;28;19953;-87
2022/11/12 14:48:25;;;;;;;;;;;15.70;80.80;;;;;;5034368;28;19936;-86
2022/11/12 14:50:54;;;;;;;;;;;15.60;81.20;;;;;;5034055;28;20327;-86
2022/11/12 14:53:24;;;;;;;;;;;15.60;81.40;;;;;;5034052;28;20044;-86
2022/11/12 14:55:51;;;;;;;;;;;15.60;81.20;;;;;;5034198;28;19983;-87
2022/11/12 14:58:18;;;;;;;;;;;15.50;81.10;;;;;;5034111;28;20420;-86
2022/11/12 15:00:45;;;;;;;;;;;15.40;81.40;;;;;;5034009;28;19982;-86